Time;durP1;ratioP1;P1;durP2;ratioP2;P2;SDS_P1;SDS_P2;PMS_P1;PMS_P2;Temp;Humidity;BMP_temperature;BMP_pressure;BME280_temperature;BME280_humidity;BME280_pressure;Samples;Min_cycle;Max_cycle;Signal;HPM_P1;HPM_P2
2024/03/19 00:15:37;;;;;;;3.67;1.70;;;;;;;;;;5012806;28;20072;-52
2024/03/19 00:18:22;;;;;;;2.70;1.70;;;;;;;;;;4952886;28;20054;-54
2024/03/19 00:20:49;;;;;;;3.13;1.80;;;;;;;;;;4954102;28;20062;-47
2024/03/19 00:23:22;;;;;;;2.38;1.40;;;;;;;;;;4962928;28;20101;-49
2024/03/19 00:25:55;;;;;;;5.07;1.60;;;;;;;;;;4962563;28;21974;-62
2024/03/19 00:28:21;;;;;;;4.85;1.80;;;;;;;;;;4963627;28;20054;-63
2024/03/19 00:31:14;;;;;;;2.97;1.80;;;;;;;;;;4964004;28;20054;-63
2024/03/19 00:34:00;;;;;;;3.00;1.70;;;;;;;;;;4957986;28;20089;-62
2024/03/19 00:36:53;;;;;;;5.20;1.83;;;;;;;;;;4956816;28;20423;-59
2024/03/19 00:39:39;;;;;;;5.90;1.90;;;;;;;;;;4960383;28;20069;-62
2024/03/19 00:42:32;;;;;;;10.02;2.22;;;;;;;;;;4972383;28;20063;-63
2024/03/19 00:45:18;;;;;;;4.10;2.00;;;;;;;;;;4962627;28;20054;-63
2024/03/19 00:48:11;;;;;;;3.72;2.20;;;;;;;;;;4972330;28;20058;-63
2024/03/19 00:50:57;;;;;;;3.72;2.00;;;;;;;;;;4957325;28;20059;-63
2024/03/19 00:53:50;;;;;;;2.60;1.77;;;;;;;;;;4962627;28;20066;-59
2024/03/19 00:56:36;;;;;;;6.75;2.05;;;;;;;;;;4962268;28;20058;-60
2024/03/19 00:59:29;;;;;;;5.75;1.80;;;;;;;;;;4959586;28;20069;-59
2024/03/19 01:02:16;;;;;;;4.53;2.15;;;;;;;;;;4964435;28;20077;-59
2024/03/19 01:05:08;;;;;;;6.07;1.98;;;;;;;;;;4965696;28;20050;-58
2024/03/19 01:07:55;;;;;;;7.32;1.90;;;;;;;;;;4960608;28;20957;-55
2024/03/19 01:10:47;;;;;;;3.97;1.92;;;;;;;;;;4963783;28;20062;-56
2024/03/19 01:13:33;;;;;;;2.55;1.60;;;;;;;;;;4960412;28;20535;-57
2024/03/19 01:16:40;;;;;;;4.97;2.65;;;;;;;;;;4961464;28;20062;-57
2024/03/19 01:19:33;;;;;;;4.57;2.00;;;;;;;;;;4975824;28;20068;-57
2024/03/19 01:22:26;;;;;;;8.93;2.28;;;;;;;;;;4959516;28;20148;-50
2024/03/19 01:25:12;;;;;;;6.40;2.50;;;;;;;;;;4957125;28;20055;-51
2024/03/19 01:28:05;;;;;;;8.70;2.40;;;;;;;;;;4960848;28;20066;-50
2024/03/19 01:30:51;;;;;;;7.95;2.38;;;;;;;;;;4959683;28;20066;-54
2024/03/19 01:33:57;;;;;;;5.80;2.00;;;;;;;;;;4960982;28;20059;-59
2024/03/19 01:36:43;;;;;;;9.48;2.53;;;;;;;;;;4958456;28;20058;-48
2024/03/19 01:39:37;;;;;;;5.75;1.92;;;;;;;;;;4962282;28;20495;-48
2024/03/19 01:42:22;;;;;;;7.03;2.50;;;;;;;;;;4960321;28;20074;-52
2024/03/19 01:45:15;;;;;;;5.60;2.22;;;;;;;;;;4959242;28;20456;-48
2024/03/19 01:48:08;;;;;;;9.75;2.72;;;;;;;;;;4960646;28;20054;-49
2024/03/19 01:51:01;;;;;;;6.55;2.10;;;;;;;;;;4961464;28;20063;-53
2024/03/19 01:53:48;;;;;;;9.23;2.22;;;;;;;;;;4957832;28;20058;-60
2024/03/19 01:56:41;;;;;;;7.68;2.25;;;;;;;;;;4964224;28;20073;-51
2024/03/19 01:59:27;;;;;;;4.95;2.28;;;;;;;;;;4965887;28;20054;-55
2024/03/19 02:02:36;;;;;;;5.10;2.10;;;;;;;;;;4963756;28;20061;-53
2024/03/19 02:05:22;;;;;;;9.43;2.67;;;;;;;;;;4966573;28;20062;-47
2024/03/19 02:08:15;;;;;;;7.45;2.33;;;;;;;;;;4963783;28;20058;-55
2024/03/19 02:11:01;;;;;;;7.18;2.60;;;;;;;;;;4966270;28;20070;-49
2024/03/19 02:13:54;;;;;;;11.63;2.90;;;;;;;;;;4963767;28;20062;-53
2024/03/19 02:16:46;;;;;;;7.95;2.75;;;;;;;;;;4956003;28;20073;-46
2024/03/19 02:19:46;;;;;;;2.45;1.60;;;;;;;;;;4943718;28;20065;-55
2024/03/19 02:22:32;;;;;;;6.80;2.55;;;;;;;;;;4942419;28;20102;-55
2024/03/19 02:25:25;;;;;;;11.07;2.88;;;;;;;;;;4942397;28;20070;-53
2024/03/19 02:28:11;;;;;;;6.75;2.45;;;;;;;;;;4947967;28;20456;-55
2024/03/19 02:31:04;;;;;;;3.42;1.80;;;;;;;;;;4963247;28;20136;-58
2024/03/19 02:33:50;;;;;;;7.82;2.40;;;;;;;;;;4943905;28;20058;-59
2024/03/19 02:36:43;;;;;;;7.32;2.10;;;;;;;;;;4954061;28;20051;-60
2024/03/19 02:39:29;;;;;;;5.78;2.38;;;;;;;;;;4944996;28;20070;-59
2024/03/19 02:42:22;;;;;;;3.47;2.20;;;;;;;;;;4945603;28;20063;-60
2024/03/19 02:45:08;;;;;;;7.57;2.20;;;;;;;;;;4943916;28;20591;-60
2024/03/19 02:48:02;;;;;;;9.00;1.90;;;;;;;;;;4949258;28;20520;-48
2024/03/19 02:50:47;;;;;;;9.38;2.22;;;;;;;;;;4942036;28;20500;-48
2024/03/19 02:53:40;;;;;;;5.45;2.33;;;;;;;;;;4967492;28;20082;-50
2024/03/19 02:56:26;;;;;;;7.93;2.20;;;;;;;;;;4943951;28;20069;-48
2024/03/19 02:59:19;;;;;;;5.13;2.05;;;;;;;;;;4951802;28;20062;-47
2024/03/19 03:02:05;;;;;;;12.02;2.38;;;;;;;;;;4959483;28;20170;-54
2024/03/19 03:04:58;;;;;;;5.82;2.03;;;;;;;;;;4947731;28;20584;-54
2024/03/19 03:07:44;;;;;;;5.20;2.47;;;;;;;;;;4943188;28;20055;-54
2024/03/19 03:10:37;;;;;;;8.95;2.00;;;;;;;;;;4946638;28;20497;-55
2024/03/19 03:13:23;;;;;;;7.03;2.75;;;;;;;;;;4942135;28;20317;-55
2024/03/19 03:16:23;;;;;;;4.25;2.10;;;;;;;;;;4949382;28;20058;-64
2024/03/19 03:19:09;;;;;;;3.65;2.05;;;;;;;;;;4963875;28;20117;-63
2024/03/19 03:22:01;;;;;;;7.75;2.30;;;;;;;;;;4978571;28;20081;-63
2024/03/19 03:24:47;;;;;;;5.32;2.13;;;;;;;;;;4959959;28;20054;-63
2024/03/19 03:27:40;;;;;;;4.82;1.98;;;;;;;;;;4962176;28;20590;-56
2024/03/19 03:30:26;;;;;;;5.38;2.15;;;;;;;;;;4959641;28;20062;-57
2024/03/19 03:33:19;;;;;;;5.88;1.88;;;;;;;;;;4956589;28;20058;-56
2024/03/19 03:36:05;;;;;;;5.40;2.20;;;;;;;;;;4958377;28;20065;-52
2024/03/19 03:38:58;;;;;;;7.90;2.50;;;;;;;;;;4963474;28;20547;-52
2024/03/19 03:41:44;;;;;;;4.88;1.80;;;;;;;;;;4961761;28;20081;-56
2024/03/19 03:44:37;;;;;;;6.40;2.05;;;;;;;;;;4965715;28;20076;-59
2024/03/19 03:47:23;;;;;;;6.75;2.60;;;;;;;;;;4965703;28;20062;-58
2024/03/19 03:50:16;;;;;;;9.43;2.20;;;;;;;;;;4960206;28;20092;-59
2024/03/19 03:53:03;;;;;;;8.88;1.88;;;;;;;;;;4959598;28;20074;-59
2024/03/19 03:55:56;;;;;;;9.90;2.00;;;;;;;;;;4956200;28;20066;-51
2024/03/19 03:58:42;;;;;;;5.78;1.95;;;;;;;;;;4961237;28;20539;-59
2024/03/19 04:01:35;;;;;;;7.35;2.47;;;;;;;;;;4958770;28;20062;-59
2024/03/19 04:04:21;;;;;;;5.00;1.60;;;;;;;;;;4962774;28;20054;-57
2024/03/19 04:07:14;;;;;;;6.03;1.90;;;;;;;;;;4963580;28;20058;-58
2024/03/19 04:10:00;;;;;;;2.70;1.70;;;;;;;;;;4958855;28;20797;-58
2024/03/19 04:12:53;;;;;;;7.30;2.13;;;;;;;;;;4960992;28;20413;-63
2024/03/19 04:15:39;;;;;;;5.38;1.92;;;;;;;;;;4960642;28;20066;-64
2024/03/19 04:18:39;;;;;;;10.20;2.10;;;;;;;;;;4959441;28;20054;-63
2024/03/19 04:21:25;;;;;;;9.05;1.90;;;;;;;;;;4961059;28;20121;-63
2024/03/19 04:24:18;;;;;;;6.45;1.95;;;;;;;;;;4973592;28;20062;-59
2024/03/19 04:27:04;;;;;;;7.82;2.08;;;;;;;;;;4961798;28;20065;-52
2024/03/19 04:29:57;;;;;;;5.47;1.92;;;;;;;;;;4962480;28;22185;-53
2024/03/19 04:32:43;;;;;;;5.97;1.58;;;;;;;;;;4960965;28;20061;-55
2024/03/19 04:35:37;;;;;;;8.43;2.20;;;;;;;;;;4974210;28;20058;-47
2024/03/19 04:38:22;;;;;;;3.75;1.70;;;;;;;;;;4959322;28;20499;-51
2024/03/19 04:41:15;;;;;;;5.53;1.65;;;;;;;;;;4964349;28;20866;-56
2024/03/19 04:44:01;;;;;;;3.20;1.83;;;;;;;;;;4958368;28;20061;-58
2024/03/19 04:46:54;;;;;;;6.38;1.60;;;;;;;;;;4960400;28;20384;-58
2024/03/19 04:49:41;;;;;;;6.05;1.77;;;;;;;;;;4956131;28;20557;-59
2024/03/19 04:52:34;;;;;;;5.55;1.23;;;;;;;;;;4949754;28;20093;-50
2024/03/19 04:55:20;;;;;;;3.53;1.83;;;;;;;;;;4957514;28;20106;-54
2024/03/19 04:58:13;;;;;;;2.78;1.40;;;;;;;;;;4971343;28;20066;-48
2024/03/19 05:00:59;;;;;;;3.00;1.50;;;;;;;;;;4957706;28;20055;-55
2024/03/19 05:03:52;;;;;;;2.65;1.35;;;;;;;;;;4958150;28;20067;-54
2024/03/19 05:06:38;;;;;;;5.70;1.70;;;;;;;;;;4960418;28;20472;-53
2024/03/19 05:09:31;;;;;;;4.50;1.45;;;;;;;;;;4967079;28;20070;-56
2024/03/19 05:12:17;;;;;;;3.08;1.50;;;;;;;;;;4964421;28;20058;-54
2024/03/19 05:15:10;;;;;;;7.03;2.20;;;;;;;;;;4963962;28;20587;-55
2024/03/19 05:18:02;;;;;;;2.05;1.60;;;;;;;;;;4956221;28;20529;-54
2024/03/19 05:20:55;;;;;;;2.03;1.48;;;;;;;;;;4953661;28;20055;-59
2024/03/19 05:23:42;;;;;;;3.25;1.50;;;;;;;;;;4957810;28;20054;-57
2024/03/19 05:26:34;;;;;;;5.72;2.03;;;;;;;;;;4964176;28;20055;-58
2024/03/19 05:29:20;;;;;;;2.30;1.65;;;;;;;;;;4956195;28;20106;-60
2024/03/19 05:32:13;;;;;;;5.15;1.60;;;;;;;;;;4963362;28;20562;-60
2024/03/19 05:34:59;;;;;;;4.07;2.00;;;;;;;;;;4959170;28;20088;-60
2024/03/19 05:37:52;;;;;;;3.60;1.60;;;;;;;;;;4961866;28;20057;-66
2024/03/19 05:40:38;;;;;;;2.67;1.45;;;;;;;;;;4966802;28;20058;-67
2024/03/19 05:43:31;;;;;;;2.30;1.50;;;;;;;;;;4975752;28;20527;-67
2024/03/19 05:46:17;;;;;;;7.35;1.58;;;;;;;;;;4961963;28;20059;-67
2024/03/19 05:49:11;;;;;;;6.25;1.65;;;;;;;;;;4966488;28;20069;-53
2024/03/19 05:51:56;;;;;;;6.13;2.03;;;;;;;;;;4964497;28;20544;-54
2024/03/19 05:54:49;;;;;;;2.45;1.48;;;;;;;;;;4966881;28;20046;-49
2024/03/19 05:57:35;;;;;;;2.67;1.70;;;;;;;;;;4962465;28;20101;-50
2024/03/19 06:00:28;;;;;;;2.42;1.30;;;;;;;;;;4967503;28;20068;-52
2024/03/19 06:03:15;;;;;;;3.00;1.60;;;;;;;;;;4966170;28;20615;-47
2024/03/19 06:06:10;;;;;;;1.83;1.45;;;;;;;;;;4970673;28;20126;-63
2024/03/19 06:08:56;;;;;;;4.90;1.60;;;;;;;;;;4967366;28;20058;-64
2024/03/19 06:11:49;;;;;;;5.05;1.77;;;;;;;;;;4967717;28;20475;-64
2024/03/19 06:14:35;;;;;;;7.70;1.80;;;;;;;;;;4964726;28;20066;-64
2024/03/19 06:17:35;;;;;;;4.75;1.65;;;;;;;;;;4955565;28;20058;-50
2024/03/19 06:20:27;;;;;;;5.22;1.60;;;;;;;;;;4944690;28;20055;-46
2024/03/19 06:23:20;;;;;;;3.13;1.52;;;;;;;;;;4963472;28;20471;-54
2024/03/19 06:26:06;;;;;;;3.35;1.60;;;;;;;;;;4942092;28;20063;-49
2024/03/19 06:28:59;;;;;;;6.43;1.67;;;;;;;;;;4942797;28;20063;-49
2024/03/19 06:31:46;;;;;;;3.63;1.58;;;;;;;;;;4945572;28;20420;-49
2024/03/19 06:34:38;;;;;;;2.42;1.52;;;;;;;;;;4947331;28;20769;-55
2024/03/19 06:37:24;;;;;;;3.40;1.67;;;;;;;;;;4947701;28;20066;-59
2024/03/19 06:40:17;;;;;;;4.50;1.98;;;;;;;;;;4947222;28;20110;-56
2024/03/19 06:43:03;;;;;;;8.50;1.70;;;;;;;;;;4943096;28;20058;-55
2024/03/19 06:45:56;;;;;;;3.60;1.80;;;;;;;;;;4946851;28;20119;-67
2024/03/19 06:48:45;;;;;;;3.08;1.60;;;;;;;;;;4943232;28;20051;-61
2024/03/19 06:51:36;;;;;;;7.75;2.00;;;;;;;;;;4961092;28;20067;-60
2024/03/19 06:54:22;;;;;;;3.63;1.75;;;;;;;;;;4946826;28;20050;-61
2024/03/19 06:57:17;;;;;;;2.63;1.70;;;;;;;;;;4950184;28;20051;-60
2024/03/19 07:00:02;;;;;;;6.55;2.03;;;;;;;;;;4945478;28;20766;-61
2024/03/19 07:02:57;;;;;;;6.20;1.90;;;;;;;;;;4941664;28;20603;-62
2024/03/19 07:05:44;;;;;;;4.97;1.67;;;;;;;;;;4943674;28;20055;-61
2024/03/19 07:08:36;;;;;;;5.55;1.90;;;;;;;;;;4947068;28;20410;-61
2024/03/19 07:11:22;;;;;;;3.60;1.70;;;;;;;;;;4942151;28;20054;-62
2024/03/19 07:14:15;;;;;;;5.72;2.05;;;;;;;;;;4942625;28;20059;-61
2024/03/19 07:17:08;;;;;;;2.33;1.60;;;;;;;;;;4947262;28;20555;-61
2024/03/19 07:20:01;;;;;;;4.05;1.85;;;;;;;;;;4963160;28;20133;-61
2024/03/19 07:22:49;;;;;;;6.28;1.63;;;;;;;;;;4965079;28;20085;-61
2024/03/19 07:25:41;;;;;;;2.03;1.80;;;;;;;;;;4960271;28;20106;-62
2024/03/19 07:28:27;;;;;;;3.35;1.67;;;;;;;;;;4965440;28;20066;-61
2024/03/19 07:31:20;;;;;;;4.60;1.45;;;;;;;;;;4965315;28;20685;-52
2024/03/19 07:34:06;;;;;;;3.65;1.60;;;;;;;;;;4959548;28;20058;-55
2024/03/19 07:36:59;;;;;;;4.55;1.80;;;;;;;;;;4963940;28;20113;-56
2024/03/19 07:39:45;;;;;;;3.97;1.35;;;;;;;;;;4964815;28;20061;-58
2024/03/19 07:42:38;;;;;;;3.85;1.35;;;;;;;;;;4961672;28;20176;-56
2024/03/19 07:45:25;;;;;;;5.35;1.92;;;;;;;;;;4963242;28;20062;-65
2024/03/19 07:48:17;;;;;;;5.50;1.80;;;;;;;;;;4971265;28;20089;-67
2024/03/19 07:51:03;;;;;;;5.47;1.75;;;;;;;;;;4961326;28;20067;-66
2024/03/19 07:53:56;;;;;;;1.88;1.42;;;;;;;;;;4964917;28;20900;-66
2024/03/19 07:56:43;;;;;;;6.68;1.40;;;;;;;;;;4962642;28;20425;-67
2024/03/19 07:59:35;;;;;;;2.53;1.35;;;;;;;;;;4966354;28;20756;-66
2024/03/19 08:02:21;;;;;;;2.40;1.42;;;;;;;;;;4960051;28;20088;-57
2024/03/19 08:05:14;;;;;;;4.85;1.20;;;;;;;;;;4974614;28;20059;-56
2024/03/19 08:08:02;;;;;;;2.85;1.25;;;;;;;;;;4958905;28;20562;-56
2024/03/19 08:10:53;;;;;;;2.15;1.05;;;;;;;;;;4979458;28;20431;-53
2024/03/19 08:13:39;;;;;;;3.35;1.30;;;;;;;;;;4960950;28;20051;-61
2024/03/19 08:16:32;;;;;;;4.38;1.52;;;;;;;;;;4962068;28;20065;-62
2024/03/19 08:19:25;;;;;;;2.63;1.30;;;;;;;;;;4959768;28;20059;-61
2024/03/19 08:22:17;;;;;;;4.07;1.23;;;;;;;;;;4960402;28;20689;-62
2024/03/19 08:25:04;;;;;;;1.52;1.23;;;;;;;;;;4961163;28;20062;-62
2024/03/19 08:27:56;;;;;;;3.97;1.00;;;;;;;;;;4959073;28;20145;-61
2024/03/19 08:30:45;;;;;;;4.10;1.15;;;;;;;;;;4965201;28;20055;-56
2024/03/19 08:33:35;;;;;;;2.03;1.10;;;;;;;;;;4967840;28;20639;-59
2024/03/19 08:36:21;;;;;;;6.10;1.67;;;;;;;;;;4962803;28;21040;-58
2024/03/19 08:39:14;;;;;;;2.38;1.38;;;;;;;;;;4961971;28;20062;-57
2024/03/19 08:42:00;;;;;;;3.13;1.10;;;;;;;;;;4960582;28;20070;-61
2024/03/19 08:44:53;;;;;;;1.75;1.10;;;;;;;;;;4962575;28;20062;-61
2024/03/19 08:47:39;;;;;;;1.65;1.13;;;;;;;;;;4957572;28;20536;-61
2024/03/19 08:50:32;;;;;;;2.95;1.13;;;;;;;;;;4962861;28;20059;-61
2024/03/19 08:53:18;;;;;;;2.75;1.35;;;;;;;;;;4958336;28;20070;-62
2024/03/19 08:56:11;;;;;;;5.07;1.30;;;;;;;;;;4962737;28;20058;-61
2024/03/19 08:58:57;;;;;;;1.50;1.23;;;;;;;;;;4962083;28;20058;-59
2024/03/19 09:01:50;;;;;;;2.70;1.40;;;;;;;;;;4961718;28;20050;-56
2024/03/19 09:04:36;;;;;;;6.32;1.23;;;;;;;;;;4962751;28;20065;-55
2024/03/19 09:07:29;;;;;;;2.22;1.00;;;;;;;;;;4961887;28;20077;-65
2024/03/19 09:10:15;;;;;;;2.53;1.45;;;;;;;;;;4962525;28;20161;-67
2024/03/19 09:13:08;;;;;;;2.75;1.10;;;;;;;;;;4962509;28;20055;-67
2024/03/19 09:15:54;;;;;;;1.95;1.10;;;;;;;;;;4960537;28;20432;-66
2024/03/19 09:18:54;;;;;;;1.55;0.95;;;;;;;;;;4966460;28;20059;-67
2024/03/19 09:21:46;;;;;;;2.65;1.15;;;;;;;;;;4963407;28;20496;-66
2024/03/19 09:24:39;;;;;;;2.17;1.20;;;;;;;;;;4963562;28;20117;-67
2024/03/19 09:27:25;;;;;;;3.97;1.30;;;;;;;;;;4964166;28;20058;-52
2024/03/19 09:30:18;;;;;;;3.13;1.20;;;;;;;;;;4963370;28;20054;-52
2024/03/19 09:33:05;;;;;;;2.25;1.40;;;;;;;;;;4963838;28;20058;-50
2024/03/19 09:35:57;;;;;;;2.15;1.23;;;;;;;;;;4962134;28;20054;-61
2024/03/19 09:38:48;;;;;;;2.35;1.17;;;;;;;;;;4957297;28;20420;-65
2024/03/19 09:41:37;;;;;;;1.95;1.20;;;;;;;;;;4960684;28;20520;-64
2024/03/19 09:44:23;;;;;;;2.53;1.38;;;;;;;;;;4958893;28;20064;-65
2024/03/19 09:47:16;;;;;;;1.48;1.13;;;;;;;;;;4961114;28;20054;-64
2024/03/19 09:50:03;;;;;;;1.35;0.90;;;;;;;;;;4961292;28;20100;-65
2024/03/19 09:52:57;;;;;;;3.20;1.20;;;;;;;;;;4960195;28;20571;-65
2024/03/19 09:55:41;;;;;;;3.65;1.08;;;;;;;;;;4962342;28;20066;-56
2024/03/19 09:58:34;;;;;;;1.63;1.17;;;;;;;;;;4959526;28;20059;-56
2024/03/19 10:01:20;;;;;;;2.50;1.20;;;;;;;;;;4959033;28;20073;-58
2024/03/19 10:04:14;;;;;;;1.88;1.17;;;;;;;;;;4956354;28;20650;-61
2024/03/19 10:07:00;;;;;;;1.98;1.20;;;;;;;;;;4962799;28;20062;-61
2024/03/19 10:09:55;;;;;;;3.75;1.20;;;;;;;;;;4962332;28;20058;-62
2024/03/19 10:12:41;;;;;;;2.25;1.25;;;;;;;;;;4961805;28;20055;-62
2024/03/19 10:15:34;;;;;;;4.70;1.45;;;;;;;;;;4978179;28;20054;-62
2024/03/19 10:18:29;;;;;;;2.92;1.50;;;;;;;;;;4961345;28;20471;-62
2024/03/19 10:21:22;;;;;;;1.55;1.02;;;;;;;;;;4975466;28;20062;-62
2024/03/19 10:24:17;;;;;;;3.10;1.10;;;;;;;;;;4965426;28;20428;-59
2024/03/19 10:27:10;;;;;;;2.22;1.05;;;;;;;;;;4968238;28;20155;-58
2024/03/19 10:29:56;;;;;;;2.83;1.00;;;;;;;;;;4960218;28;20105;-54
2024/03/19 10:32:52;;;;;;;2.53;1.38;;;;;;;;;;4964805;28;20050;-62
2024/03/19 10:35:39;;;;;;;3.67;1.60;;;;;;;;;;4962917;28;20046;-64
2024/03/19 10:38:32;;;;;;;3.10;1.13;;;;;;;;;;4982543;28;20058;-64
2024/03/19 10:41:19;;;;;;;2.20;0.90;;;;;;;;;;4962821;28;20539;-65
2024/03/19 10:44:19;;;;;;;1.83;1.02;;;;;;;;;;4963429;28;20513;-64
2024/03/19 10:47:05;;;;;;;1.80;1.00;;;;;;;;;;4960893;28;20063;-64
2024/03/19 10:49:58;;;;;;;1.27;0.95;;;;;;;;;;4959716;28;20055;-64
2024/03/19 10:52:47;;;;;;;3.78;1.33;;;;;;;;;;4965326;28;21005;-64
2024/03/19 10:55:42;;;;;;;2.17;1.15;;;;;;;;;;4965434;28;20063;-64
2024/03/19 10:58:28;;;;;;;1.48;1.00;;;;;;;;;;4960822;28;20058;-64
2024/03/19 11:01:21;;;;;;;1.38;0.80;;;;;;;;;;4964751;28;20066;-62
2024/03/19 11:04:07;;;;;;;1.17;0.90;;;;;;;;;;4965127;28;20435;-46
2024/03/19 11:07:00;;;;;;;1.15;0.80;;;;;;;;;;4962986;28;20101;-50
2024/03/19 11:09:50;;;;;;;2.47;1.00;;;;;;;;;;4963066;28;20061;-51
2024/03/19 11:12:43;;;;;;;2.40;0.88;;;;;;;;;;4983227;28;20062;-51
2024/03/19 11:15:30;;;;;;;1.63;1.25;;;;;;;;;;4962527;28;20089;-54
2024/03/19 11:18:33;;;;;;;1.38;0.98;;;;;;;;;;4970223;28;20112;-52
2024/03/19 11:21:22;;;;;;;2.17;1.02;;;;;;;;;;4962467;28;20077;-64
2024/03/19 11:24:22;;;;;;;2.00;1.13;;;;;;;;;;4966013;28;20125;-65
2024/03/19 11:27:08;;;;;;;2.13;0.90;;;;;;;;;;4960885;28;20067;-65
2024/03/19 11:30:07;;;;;;;1.40;1.00;;;;;;;;;;4965196;28;20054;-50
2024/03/19 11:33:00;;;;;;;1.88;1.17;;;;;;;;;;4960117;28;20055;-61
2024/03/19 11:35:53;;;;;;;3.65;1.23;;;;;;;;;;4960812;28;20061;-61
2024/03/19 11:38:39;;;;;;;3.08;1.23;;;;;;;;;;4963631;28;20113;-61
2024/03/19 11:41:32;;;;;;;2.60;1.05;;;;;;;;;;4967567;28;21145;-61
2024/03/19 11:44:22;;;;;;;2.03;0.80;;;;;;;;;;4961052;28;20054;-61
2024/03/19 11:47:15;;;;;;;3.67;1.10;;;;;;;;;;4960389;28;20062;-61
2024/03/19 11:50:01;;;;;;;2.08;0.90;;;;;;;;;;4961327;28;20062;-60
2024/03/19 11:52:58;;;;;;;1.85;0.90;;;;;;;;;;4964824;28;20058;-60
2024/03/19 11:55:51;;;;;;;0.90;0.88;;;;;;;;;;4962903;28;20054;-60
2024/03/19 11:58:59;;;;;;;1.42;1.00;;;;;;;;;;4963415;28;20145;-57
2024/03/19 12:01:52;;;;;;;1.67;1.10;;;;;;;;;;4962460;28;20058;-65
2024/03/19 12:04:45;;;;;;;3.35;1.30;;;;;;;;;;4964730;28;20070;-65
2024/03/19 12:07:31;;;;;;;2.70;1.08;;;;;;;;;;4963209;28;20423;-65
2024/03/19 12:10:26;;;;;;;1.90;0.88;;;;;;;;;;4977786;28;20429;-65
2024/03/19 12:13:11;;;;;;;1.92;1.02;;;;;;;;;;4964772;28;20690;-65
2024/03/19 12:16:18;;;;;;;2.05;1.20;;;;;;;;;;4964848;28;20063;-61
2024/03/19 12:19:04;;;;;;;4.70;1.50;;;;;;;;;;4960296;28;20504;-61
2024/03/19 12:21:57;;;;;;;3.20;1.42;;;;;;;;;;4963503;28;20066;-61
2024/03/19 12:24:51;;;;;;;2.47;1.25;;;;;;;;;;4966229;28;20109;-61
2024/03/19 12:27:44;;;;;;;1.10;1.00;;;;;;;;;;4965673;28;20551;-55
2024/03/19 12:30:40;;;;;;;2.17;1.02;;;;;;;;;;4967411;28;20070;-66
2024/03/19 12:33:40;;;;;;;1.23;1.10;;;;;;;;;;4964264;28;20631;-64
2024/03/19 12:36:24;;;;;;;2.95;1.20;;;;;;;;;;4957136;28;20424;-65
2024/03/19 12:39:17;;;;;;;5.97;1.20;;;;;;;;;;4960427;28;20058;-64
2024/03/19 12:42:11;;;;;;;3.20;1.15;;;;;;;;;;4954010;28;20062;-64
2024/03/19 12:44:57;;;;;;;2.63;1.45;;;;;;;;;;4958692;28;20059;-49
2024/03/19 12:47:50;;;;;;;3.72;2.00;;;;;;;;;;4963593;28;20058;-47
2024/03/19 12:50:36;;;;;;;2.15;1.45;;;;;;;;;;4958420;28;20500;-47
2024/03/19 12:53:29;;;;;;;1.45;0.93;;;;;;;;;;4963345;28;20503;-46
2024/03/19 12:56:22;;;;;;;1.17;1.10;;;;;;;;;;4962161;28;20058;-48
2024/03/19 12:59:09;;;;;;;1.70;1.10;;;;;;;;;;4961507;28;21044;-61
2024/03/19 13:02:01;;;;;;;4.70;1.48;;;;;;;;;;4961850;28;20062;-61
2024/03/19 13:04:47;;;;;;;2.35;1.42;;;;;;;;;;4963730;28;20431;-61
2024/03/19 13:07:40;;;;;;;3.95;1.48;;;;;;;;;;4964876;28;20420;-61
2024/03/19 13:10:27;;;;;;;1.92;1.15;;;;;;;;;;4961667;28;20059;-61
2024/03/19 13:13:19;;;;;;;1.45;1.20;;;;;;;;;;4974593;28;20058;-52
2024/03/19 13:16:05;;;;;;;1.88;1.40;;;;;;;;;;4964770;28;21217;-50
2024/03/19 13:19:05;;;;;;;3.45;1.20;;;;;;;;;;4965669;28;20193;-51
2024/03/19 13:21:52;;;;;;;2.15;1.13;;;;;;;;;;4959574;28;20432;-49
2024/03/19 13:24:44;;;;;;;3.33;1.10;;;;;;;;;;4962150;28;20059;-61
2024/03/19 13:27:37;;;;;;;3.72;1.33;;;;;;;;;;4963975;28;20969;-50
2024/03/19 13:30:23;;;;;;;3.05;1.20;;;;;;;;;;4959110;28;20516;-52
2024/03/19 13:33:16;;;;;;;3.22;1.45;;;;;;;;;;4962888;28;20432;-51
2024/03/19 13:36:02;;;;;;;1.60;1.05;;;;;;;;;;4967330;28;20057;-52
2024/03/19 13:38:55;;;;;;;3.13;1.13;;;;;;;;;;4957706;28;20050;-51
2024/03/19 13:41:41;;;;;;;1.27;0.98;;;;;;;;;;4962190;28;20118;-49
2024/03/19 13:44:34;;;;;;;1.85;0.90;;;;;;;;;;4971951;28;20508;-54
2024/03/19 13:47:20;;;;;;;2.88;1.30;;;;;;;;;;4959198;28;20067;-53
2024/03/19 13:50:14;;;;;;;5.15;1.20;;;;;;;;;;4963703;28;20062;-52
2024/03/19 13:53:06;;;;;;;1.70;1.20;;;;;;;;;;4960434;28;20073;-61
2024/03/19 13:55:52;;;;;;;3.42;1.00;;;;;;;;;;4959823;28;20416;-65
2024/03/19 13:58:45;;;;;;;2.60;1.10;;;;;;;;;;4969233;28;20057;-66
2024/03/19 14:01:31;;;;;;;1.92;1.00;;;;;;;;;;4965398;28;20104;-64
2024/03/19 14:04:30;;;;;;;1.20;1.10;;;;;;;;;;4965134;28;20431;-65
2024/03/19 14:07:10;;;;;;;2.47;1.30;;;;;;;;;;4964603;28;20050;-65
2024/03/19 14:10:04;;;;;;;1.80;1.05;;;;;;;;;;4961062;28;20059;-65
2024/03/19 14:12:49;;;;;;;1.38;1.00;;;;;;;;;;4965282;28;20091;-64
2024/03/19 14:15:43;;;;;;;4.43;1.40;;;;;;;;;;4963074;28;20105;-65
2024/03/19 14:18:35;;;;;;;3.22;1.40;;;;;;;;;;4964981;28;20509;-65
2024/03/19 14:21:28;;;;;;;1.45;0.82;;;;;;;;;;4965411;28;20504;-61
2024/03/19 14:24:14;;;;;;;3.58;1.70;;;;;;;;;;4965112;28;20066;-50
2024/03/19 14:27:07;;;;;;;1.00;1.00;;;;;;;;;;4964070;28;20062;-53
2024/03/19 14:29:53;;;;;;;4.72;2.55;;;;;;;;;;4965660;28;20050;-49
2024/03/19 14:32:46;;;;;;;3.33;1.90;;;;;;;;;;4963377;28;20069;-50
2024/03/19 14:35:32;;;;;;;3.78;1.40;;;;;;;;;;4961787;28;20135;-50
2024/03/19 14:38:25;;;;;;;4.15;1.13;;;;;;;;;;4962903;28;20443;-65
2024/03/19 14:41:11;;;;;;;1.25;1.00;;;;;;;;;;4964850;28;20113;-64
2024/03/19 14:44:04;;;;;;;1.92;0.93;;;;;;;;;;4973723;28;20062;-65
2024/03/19 14:46:50;;;;;;;3.08;1.23;;;;;;;;;;4964498;28;20664;-64
2024/03/19 14:49:43;;;;;;;2.20;1.08;;;;;;;;;;4968847;28;20073;-54
2024/03/19 14:52:29;;;;;;;3.22;1.10;;;;;;;;;;4968324;28;20058;-64
2024/03/19 14:55:22;;;;;;;0.88;0.88;;;;;;;;;;4961220;28;20340;-64
2024/03/19 14:58:15;;;;;;;2.08;1.20;;;;;;;;;;4976848;28;20528;-64
2024/03/19 15:01:01;;;;;;;1.23;0.82;;;;;;;;;;4958626;28;20062;-64
2024/03/19 15:03:54;;;;;;;2.65;1.00;;;;;;;;;;4982046;28;20077;-63
2024/03/19 15:06:47;;;;;;;2.47;1.30;;;;;;;;;;4967779;28;20062;-60
2024/03/19 15:09:33;;;;;;;3.50;1.00;;;;;;;;;;4967293;28;20116;-61
2024/03/19 15:12:26;;;;;;;2.58;1.10;;;;;;;;;;4980220;28;20065;-61
2024/03/19 15:15:12;;;;;;;2.67;1.40;;;;;;;;;;4965159;28;20058;-61
2024/03/19 15:18:18;;;;;;;3.00;1.30;;;;;;;;;;4965079;28;20070;-58
2024/03/19 15:21:11;;;;;;;5.32;1.48;;;;;;;;;;4964169;28;20062;-64
2024/03/19 15:24:05;;;;;;;1.90;1.27;;;;;;;;;;4968641;28;20472;-63
2024/03/19 15:26:53;;;;;;;2.05;1.33;;;;;;;;;;4964541;28;23116;-64
2024/03/19 15:29:47;;;;;;;4.40;1.38;;;;;;;;;;4965575;28;20088;-64
2024/03/19 15:32:33;;;;;;;1.80;1.10;;;;;;;;;;4966254;28;20070;-64
2024/03/19 15:35:26;;;;;;;1.27;0.80;;;;;;;;;;4978838;28;20472;-60
2024/03/19 15:38:21;;;;;;;2.58;1.00;;;;;;;;;;4966261;28;20582;-60
2024/03/19 15:41:06;;;;;;;2.15;1.05;;;;;;;;;;4963334;28;20057;-60
2024/03/19 15:43:58;;;;;;;4.10;0.98;;;;;;;;;;4962991;28;20074;-59
2024/03/19 15:46:44;;;;;;;1.05;0.95;;;;;;;;;;4965196;28;20505;-60
2024/03/19 15:49:37;;;;;;;1.42;0.90;;;;;;;;;;4968582;28;20061;-60
2024/03/19 15:52:30;;;;;;;1.67;1.27;;;;;;;;;;4980295;28;20073;-59
2024/03/19 15:55:16;;;;;;;1.00;0.90;;;;;;;;;;4963331;28;20790;-59
2024/03/19 15:58:09;;;;;;;3.05;1.23;;;;;;;;;;4966422;28;20058;-60
2024/03/19 16:00:57;;;;;;;2.63;1.40;;;;;;;;;;4962197;28;20047;-59
2024/03/19 16:03:48;;;;;;;2.28;1.20;;;;;;;;;;4963303;28;20054;-52
2024/03/19 16:06:46;;;;;;;0.85;0.85;;;;;;;;;;4959292;28;20063;-53
2024/03/19 16:09:27;;;;;;;2.58;1.25;;;;;;;;;;4959686;28;20093;-53
2024/03/19 16:12:20;;;;;;;1.38;1.10;;;;;;;;;;4961249;28;20058;-52
2024/03/19 16:15:07;;;;;;;2.45;1.30;;;;;;;;;;4962076;28;20055;-56
2024/03/19 16:18:12;;;;;;;4.72;1.30;;;;;;;;;;4979207;28;20062;-63
2024/03/19 16:21:08;;;;;;;2.80;1.50;;;;;;;;;;4960223;28;20085;-63
2024/03/19 16:24:02;;;;;;;6.00;1.55;;;;;;;;;;4964851;28;20058;-63
2024/03/19 16:26:47;;;;;;;3.58;1.20;;;;;;;;;;4958156;28;20436;-64
2024/03/19 16:29:41;;;;;;;2.53;1.23;;;;;;;;;;4978117;28;20102;-63
2024/03/19 16:32:27;;;;;;;1.85;1.25;;;;;;;;;;4963027;28;20085;-61
2024/03/19 16:35:19;;;;;;;1.30;1.05;;;;;;;;;;4961534;28;20066;-60
2024/03/19 16:38:05;;;;;;;3.03;1.38;;;;;;;;;;4963735;28;20059;-60
2024/03/19 16:40:58;;;;;;;2.60;1.35;;;;;;;;;;4956163;28;20492;-60
2024/03/19 16:43:45;;;;;;;2.60;1.92;;;;;;;;;;4959770;28;20066;-63
2024/03/19 16:46:37;;;;;;;38.10;20.88;;;;;;;;;;4962360;28;20070;-60
2024/03/19 16:49:30;;;;;;;3.80;3.00;;;;;;;;;;4954360;28;20437;-61
2024/03/19 16:52:16;;;;;;;2.35;1.58;;;;;;;;;;4960871;28;20059;-60
2024/03/19 16:55:09;;;;;;;4.30;1.63;;;;;;;;;;4965613;28;20062;-61
2024/03/19 16:57:55;;;;;;;4.15;1.75;;;;;;;;;;4958699;28;20069;-61
2024/03/19 17:00:48;;;;;;;3.92;1.73;;;;;;;;;;4960564;28;20070;-57
2024/03/19 17:03:37;;;;;;;3.30;2.05;;;;;;;;;;4960914;28;20065;-56
2024/03/19 17:06:27;;;;;;;3.40;1.60;;;;;;;;;;4960636;28;20058;-56
2024/03/19 17:09:16;;;;;;;3.83;1.88;;;;;;;;;;4958980;28;20070;-57
2024/03/19 17:12:06;;;;;;;5.70;1.92;;;;;;;;;;4957022;28;20138;-62
2024/03/19 17:14:52;;;;;;;3.25;2.10;;;;;;;;;;4953293;28;20067;-52